createdAt,value
2024-02-29T00:00:55.680Z,6.13
2024-02-29T00:03:29.099Z,6.43
2024-02-29T00:05:57.317Z,6.85
2024-02-29T00:08:25.425Z,7.07
2024-02-29T00:11:00.292Z,6.38
2024-02-29T00:13:28.462Z,7.53
2024-02-29T00:15:57.012Z,6.85
2024-02-29T00:18:25.302Z,6.72
2024-02-29T00:20:53.339Z,6.50
2024-02-29T00:23:21.565Z,6.90
2024-02-29T00:25:49.777Z,7.97
2024-02-29T00:28:18.164Z,4.93
2024-02-29T00:30:50.558Z,6.32
2024-02-29T00:33:21.703Z,7.35
2024-02-29T00:36:04.913Z,7.35
2024-02-29T00:38:39.059Z,7.55
2024-02-29T00:41:12.965Z,6.07
2024-02-29T00:43:45.593Z,6.80
2024-02-29T00:46:13.594Z,7.00
2024-02-29T00:48:41.490Z,6.97
2024-02-29T00:51:09.521Z,6.60
2024-02-29T00:53:37.455Z,7.05
2024-02-29T00:56:06.102Z,6.65
2024-02-29T00:58:39.681Z,7.65
2024-02-29T01:01:08.463Z,7.82
2024-02-29T01:03:36.828Z,6.30
2024-02-29T01:06:05.991Z,7.95
2024-02-29T01:08:36.916Z,7.55
2024-02-29T01:11:08.212Z,6.95
2024-02-29T01:13:36.741Z,7.07
2024-02-29T01:16:10.908Z,6.53
2024-02-29T01:18:39.408Z,7.30
2024-02-29T01:21:13.164Z,6.68
2024-02-29T01:23:47.064Z,6.78
2024-02-29T01:26:15.223Z,8.15
2024-02-29T01:28:45.219Z,6.85
2024-02-29T01:31:13.483Z,7.45
2024-02-29T01:33:41.627Z,7.53
2024-02-29T01:36:09.580Z,7.97
2024-02-29T01:38:37.542Z,7.38
2024-02-29T01:41:25.117Z,8.15
2024-02-29T01:44:11.955Z,7.50
2024-02-29T01:46:58.557Z,6.80
2024-02-29T01:49:47.212Z,7.35
2024-02-29T01:52:16.837Z,6.60
2024-02-29T01:54:45.069Z,6.50
2024-02-29T01:57:13.370Z,6.70
2024-02-29T01:59:41.893Z,7.60
2024-02-29T02:02:10.021Z,7.20
2024-02-29T02:04:37.902Z,7.18
2024-02-29T02:07:06.057Z,7.60
2024-02-29T02:09:36.557Z,8.13
2024-02-29T02:12:05.098Z,7.40
2024-02-29T02:14:37.222Z,8.05
2024-02-29T02:17:13.663Z,8.15
2024-02-29T02:19:45.221Z,8.02
2024-02-29T02:22:13.698Z,7.18
2024-02-29T02:24:43.792Z,7.85
2024-02-29T02:27:12.241Z,6.97
2024-02-29T02:29:47.553Z,7.13
2024-02-29T02:34:44.970Z,7.78
2024-02-29T02:37:13.052Z,6.75
2024-02-29T02:39:41.064Z,6.50
2024-02-29T02:42:09.090Z,6.43
2024-02-29T02:44:37.216Z,6.03
2024-02-29T02:47:05.375Z,6.18
2024-02-29T02:49:33.451Z,5.63
2024-02-29T02:52:04.039Z,5.95
2024-02-29T02:54:32.153Z,5.70
2024-02-29T02:57:03.106Z,5.68
2024-02-29T02:59:31.267Z,6.07
2024-02-29T03:01:59.159Z,6.55
2024-02-29T03:04:27.608Z,6.15
2024-02-29T03:06:55.527Z,5.80
2024-02-29T03:09:23.644Z,5.43
2024-02-29T03:11:51.612Z,5.43
2024-02-29T03:14:24.207Z,6.15
2024-02-29T03:17:07.624Z,6.27
2024-02-29T03:19:35.785Z,6.80
2024-02-29T03:22:12.170Z,5.97
2024-02-29T03:24:47.839Z,6.65
2024-02-29T03:27:17.174Z,6.57
2024-02-29T03:29:46.433Z,7.00
2024-02-29T03:32:16.465Z,4.88
2024-02-29T03:35:00.333Z,5.43
2024-02-29T03:37:32.908Z,5.70
2024-02-29T03:40:15.355Z,6.05
2024-02-29T03:42:49.602Z,5.40
2024-02-29T03:45:27.111Z,5.55
2024-02-29T03:48:04.934Z,6.70
2024-02-29T03:50:34.407Z,5.70
2024-02-29T03:53:06.726Z,4.97
2024-02-29T03:55:35.409Z,6.13
2024-02-29T03:58:11.011Z,5.68
2024-02-29T04:00:44.946Z,5.55
2024-02-29T04:03:13.513Z,6.00
2024-02-29T04:05:41.700Z,6.32
2024-02-29T04:08:14.055Z,5.97
2024-02-29T04:10:54.783Z,6.03
2024-02-29T04:13:26.917Z,6.15
2024-02-29T04:16:03.143Z,5.13
2024-02-29T04:18:43.243Z,5.10
2024-02-29T04:21:13.828Z,6.18
2024-02-29T04:24:05.061Z,6.25
2024-02-29T04:26:45.281Z,7.18
2024-02-29T04:32:06.095Z,6.00
2024-02-29T04:34:37.058Z,6.05
2024-02-29T04:37:34.220Z,6.50
2024-02-29T04:40:07.508Z,5.93
2024-02-29T04:42:42.920Z,5.78
2024-02-29T04:45:12.211Z,5.60
2024-02-29T04:47:40.500Z,6.28
2024-02-29T04:50:11.857Z,6.70
2024-02-29T04:52:42.942Z,5.65
2024-02-29T04:55:15.631Z,5.50
2024-02-29T05:04:53.351Z,5.35
2024-02-29T05:07:44.815Z,5.22
2024-02-29T05:10:17.629Z,5.25
2024-02-29T05:12:54.934Z,5.57
2024-02-29T05:15:56.372Z,6.03
2024-02-29T05:18:33.745Z,12.88
2024-02-29T05:21:03.302Z,6.75
2024-02-29T05:23:31.424Z,5.53
2024-02-29T05:25:59.446Z,5.53
2024-02-29T05:28:27.549Z,7.22
2024-02-29T05:30:56.004Z,6.00
2024-02-29T05:33:27.180Z,4.82
2024-02-29T05:35:59.360Z,5.00
2024-02-29T05:38:27.478Z,5.07
2024-02-29T05:40:59.207Z,5.53
2024-02-29T05:43:33.851Z,6.00
2024-02-29T05:48:39.096Z,5.70
2024-02-29T05:51:09.956Z,5.70
2024-02-29T05:53:37.980Z,5.72
2024-02-29T05:56:08.688Z,4.93
2024-02-29T06:02:23.045Z,5.63
2024-02-29T06:05:01.254Z,5.38
2024-02-29T06:08:39.907Z,6.07
2024-02-29T06:11:26.493Z,5.47
2024-02-29T06:13:58.567Z,7.03
2024-02-29T06:21:14.342Z,6.40
2024-02-29T06:23:45.720Z,6.00
2024-02-29T06:26:30.757Z,6.55
2024-02-29T06:29:05.781Z,6.60
2024-02-29T06:31:50.976Z,6.28
2024-02-29T06:34:21.979Z,6.07
2024-02-29T06:36:54.013Z,6.70
2024-02-29T06:39:23.639Z,6.50
2024-02-29T06:44:38.149Z,5.65
2024-02-29T06:47:13.213Z,5.50
2024-02-29T06:49:41.676Z,6.53
2024-02-29T06:52:15.374Z,7.38
2024-02-29T06:55:06.093Z,7.97
2024-02-29T06:58:17.630Z,7.75
2024-02-29T07:00:59.262Z,7.10
2024-02-29T07:03:43.350Z,6.68
2024-02-29T07:06:14.707Z,6.03
2024-02-29T07:08:59.917Z,6.13
2024-02-29T07:11:42.464Z,6.43
2024-02-29T07:14:26.440Z,6.80
2024-02-29T07:16:57.322Z,6.75
2024-02-29T07:19:29.535Z,5.70
2024-02-29T07:22:11.043Z,5.75
2024-02-29T07:24:39.288Z,6.80
2024-02-29T07:27:07.921Z,6.63
2024-02-29T07:29:39.031Z,6.25
2024-02-29T07:32:08.908Z,5.38
2024-02-29T07:34:44.644Z,5.63
2024-02-29T07:37:14.532Z,6.15
2024-02-29T07:39:53.650Z,5.85
2024-02-29T07:42:45.371Z,6.07
2024-02-29T07:45:21.009Z,5.65
2024-02-29T07:47:52.844Z,5.45
2024-02-29T07:50:22.312Z,5.88
2024-02-29T07:52:56.937Z,5.85
2024-02-29T07:55:25.260Z,5.30
2024-02-29T07:57:57.520Z,5.85
2024-02-29T08:00:29.674Z,6.15
2024-02-29T08:02:58.122Z,6.13
2024-02-29T08:05:32.557Z,5.28
2024-02-29T08:08:00.892Z,5.47
2024-02-29T08:10:29.219Z,5.75
2024-02-29T08:13:12.393Z,5.68
2024-02-29T08:15:47.501Z,5.47
2024-02-29T08:18:15.946Z,5.30
2024-02-29T08:20:46.676Z,5.53
2024-02-29T08:23:16.120Z,6.22
2024-02-29T08:25:45.286Z,5.90
2024-02-29T08:28:13.639Z,5.45
2024-02-29T08:30:42.457Z,6.47
2024-02-29T08:33:22.823Z,6.05
2024-02-29T08:35:52.257Z,6.88
2024-02-29T08:38:20.646Z,5.70
2024-02-29T08:40:50.917Z,5.93
2024-02-29T08:43:20.724Z,5.43
2024-02-29T08:45:51.500Z,4.90
2024-02-29T08:48:20.435Z,5.78
2024-02-29T08:50:52.659Z,6.03
2024-02-29T08:53:26.037Z,5.25
2024-02-29T08:56:01.321Z,5.78
2024-02-29T08:58:35.029Z,5.85
2024-02-29T09:01:07.048Z,5.70
2024-02-29T09:03:35.570Z,5.85
2024-02-29T09:06:06.990Z,6.00
2024-02-29T09:08:41.868Z,5.80
2024-02-29T09:11:10.267Z,5.37
2024-02-29T09:13:40.667Z,4.95
2024-02-29T09:16:12.355Z,6.03
2024-02-29T09:18:41.473Z,5.20
2024-02-29T09:21:12.797Z,5.80
2024-02-29T09:23:44.049Z,5.70
2024-02-29T09:26:18.612Z,5.65
2024-02-29T09:28:47.179Z,6.47
2024-02-29T09:31:20.043Z,5.60
2024-02-29T09:33:48.533Z,5.70
2024-02-29T09:36:18.657Z,5.30
2024-02-29T09:39:18.906Z,5.00
2024-02-29T09:42:13.289Z,6.28
2024-02-29T09:45:15.771Z,6.13
2024-02-29T09:48:00.430Z,5.07
2024-02-29T09:50:31.656Z,6.18
2024-02-29T09:53:03.397Z,5.32
2024-02-29T09:55:32.297Z,4.60
2024-02-29T09:58:05.110Z,5.35
2024-02-29T10:00:37.238Z,5.72
2024-02-29T10:03:11.514Z,5.18
2024-02-29T10:05:39.988Z,5.55
2024-02-29T10:08:30.835Z,5.72
2024-02-29T10:11:04.235Z,5.05
2024-02-29T10:14:30.830Z,6.50
2024-02-29T10:17:24.486Z,5.95
2024-02-29T10:20:10.730Z,5.95
2024-02-29T10:23:36.189Z,5.82
2024-02-29T10:59:22.687Z,5.55
2024-02-29T11:02:01.743Z,5.57
2024-02-29T11:05:43.160Z,5.85
2024-02-29T11:08:54.877Z,5.85
2024-02-29T11:12:01.637Z,5.38
2024-02-29T11:15:18.814Z,6.07
2024-02-29T11:17:53.628Z,6.00
2024-02-29T11:20:25.971Z,4.95
2024-02-29T11:24:23.865Z,5.75
2024-02-29T11:27:39.875Z,4.18
2024-02-29T11:30:27.252Z,5.53
2024-02-29T11:35:58.770Z,5.25
2024-02-29T11:43:04.850Z,5.80
2024-02-29T11:45:39.152Z,5.93
2024-02-29T11:48:10.866Z,5.00
2024-02-29T11:50:51.631Z,6.93
2024-02-29T11:53:28.286Z,5.93
2024-02-29T11:56:55.613Z,5.88
2024-02-29T12:02:27.823Z,5.20
2024-02-29T12:05:01.149Z,5.20
2024-02-29T12:07:29.869Z,5.47
2024-02-29T12:10:06.423Z,5.15
2024-02-29T12:12:52.729Z,5.05
2024-02-29T12:15:43.488Z,5.88
2024-02-29T12:21:39.763Z,4.72
2024-02-29T12:24:11.945Z,5.30
2024-02-29T12:26:43.979Z,5.32
2024-02-29T12:29:12.796Z,4.55
2024-02-29T12:32:08.807Z,5.60
2024-02-29T12:35:05.862Z,5.43
2024-02-29T12:37:49.034Z,5.30
2024-02-29T12:40:20.943Z,5.82
2024-02-29T12:43:06.461Z,5.47
2024-02-29T12:45:39.720Z,6.32
2024-02-29T12:48:42.573Z,5.78
2024-02-29T12:51:14.676Z,6.68
2024-02-29T12:53:45.966Z,5.68
2024-02-29T12:56:18.155Z,5.57
2024-02-29T12:58:56.660Z,5.85
2024-02-29T13:01:26.146Z,5.53
2024-02-29T13:04:00.654Z,5.53
2024-02-29T13:06:31.550Z,5.15
2024-02-29T13:09:01.325Z,5.88
2024-02-29T13:11:30.018Z,5.93
2024-02-29T13:14:00.694Z,5.78
2024-02-29T13:16:29.123Z,6.25
2024-02-29T13:19:00.239Z,6.15
2024-02-29T13:21:31.281Z,6.53
2024-02-29T13:23:59.877Z,6.93
2024-02-29T13:26:28.106Z,6.45
2024-02-29T13:28:59.123Z,6.97
2024-02-29T13:31:27.596Z,6.07
2024-02-29T13:34:22.341Z,6.53
2024-02-29T13:36:50.964Z,7.05
2024-02-29T13:39:22.172Z,7.35
2024-02-29T13:41:50.458Z,6.10
2024-02-29T13:45:05.103Z,7.82
2024-02-29T13:47:50.445Z,7.05
2024-02-29T13:50:39.640Z,6.68
2024-02-29T13:59:35.053Z,6.97
2024-02-29T14:02:28.017Z,7.25
2024-02-29T14:05:04.424Z,7.32
2024-02-29T14:07:34.404Z,6.40
2024-02-29T14:10:06.045Z,6.43
2024-02-29T14:12:43.174Z,6.68
2024-02-29T14:15:27.346Z,6.93
2024-02-29T14:18:03.001Z,6.28
2024-02-29T14:21:08.399Z,6.65
2024-02-29T14:23:41.660Z,6.32
2024-02-29T14:26:18.852Z,4.97
2024-02-29T14:29:00.959Z,7.00
2024-02-29T14:31:50.673Z,6.82
2024-02-29T14:34:45.681Z,6.68
2024-02-29T14:38:17.800Z,7.15
2024-02-29T14:43:42.318Z,7.93
2024-02-29T14:47:04.527Z,8.45
2024-02-29T14:49:34.578Z,8.52
2024-02-29T14:52:04.381Z,8.25
2024-02-29T14:54:35.793Z,8.25
2024-02-29T14:57:35.308Z,8.18
2024-02-29T15:00:37.037Z,8.02
2024-02-29T15:03:18.209Z,8.23
2024-02-29T15:06:16.479Z,8.75
2024-02-29T15:17:42.690Z,8.05
2024-02-29T15:24:12.116Z,8.68
2024-02-29T15:27:18.621Z,10.73
2024-02-29T15:29:52.311Z,9.15
2024-02-29T15:32:22.890Z,8.68
2024-02-29T15:34:54.113Z,10.23
2024-02-29T15:40:25.372Z,8.93
2024-02-29T15:42:54.189Z,10.60
2024-02-29T15:45:22.383Z,9.55
2024-02-29T15:47:53.613Z,10.27
2024-02-29T15:50:26.391Z,9.65
2024-02-29T15:52:58.287Z,8.65
2024-02-29T15:55:27.227Z,10.52
2024-02-29T15:57:56.465Z,11.02
2024-02-29T16:00:27.998Z,9.88
2024-02-29T16:02:56.108Z,10.25
2024-02-29T16:05:24.312Z,10.55
2024-02-29T16:07:57.829Z,10.80
2024-02-29T16:10:42.955Z,10.30
2024-02-29T16:13:18.656Z,10.52
2024-02-29T16:21:19.715Z,12.82
2024-02-29T16:31:47.057Z,10.63
2024-02-29T17:31:05.862Z,11.93
2024-02-29T17:37:32.393Z,12.02
2024-02-29T17:40:36.919Z,11.93
2024-02-29T17:54:59.299Z,13.30
2024-02-29T17:57:38.422Z,12.50
2024-02-29T18:04:25.992Z,12.93
2024-02-29T18:06:31.482Z,12.10
2024-02-29T18:09:16.133Z,12.27
2024-02-29T18:12:35.417Z,12.80
2024-02-29T18:15:33.882Z,10.93
2024-02-29T18:18:09.032Z,11.57
2024-02-29T18:21:08.602Z,12.73
2024-02-29T18:28:49.554Z,12.07
2024-02-29T18:36:13.966Z,10.90
2024-02-29T18:38:57.380Z,11.07
2024-02-29T18:41:38.060Z,11.88
2024-02-29T18:44:45.769Z,10.95
2024-02-29T18:47:27.502Z,12.20
2024-02-29T18:50:06.581Z,11.98
2024-02-29T18:52:41.299Z,13.10
2024-02-29T18:55:18.049Z,12.50
2024-02-29T18:57:54.144Z,13.07
2024-02-29T19:00:36.796Z,12.57
2024-02-29T19:03:11.680Z,11.52
2024-02-29T19:05:53.902Z,11.10
2024-02-29T19:08:31.842Z,11.18
2024-02-29T19:11:08.585Z,12.48
2024-02-29T19:13:46.405Z,12.93
2024-02-29T19:16:21.847Z,12.35
2024-02-29T19:18:59.595Z,11.27
2024-02-29T19:21:33.553Z,12.80
2024-02-29T19:24:20.334Z,11.98
2024-02-29T19:27:00.964Z,12.65
2024-02-29T19:29:43.431Z,11.82
2024-02-29T19:32:32.652Z,12.15
2024-02-29T19:39:34.594Z,12.20
2024-02-29T19:42:44.622Z,13.02
2024-02-29T19:47:30.876Z,12.63
2024-02-29T19:56:46.739Z,13.88
2024-02-29T20:00:19.978Z,12.95
2024-02-29T20:03:07.006Z,13.48
2024-02-29T20:06:19.572Z,12.75
2024-02-29T20:14:08.736Z,12.25
2024-02-29T20:17:12.291Z,11.77
2024-02-29T20:33:23.223Z,12.85
2024-02-29T20:40:31.191Z,12.63
2024-02-29T20:43:21.278Z,13.43
2024-02-29T20:46:23.013Z,13.00
2024-02-29T20:49:38.867Z,13.98
2024-02-29T20:52:21.307Z,13.75
2024-02-29T20:59:26.601Z,12.80
2024-02-29T21:02:32.336Z,13.63
2024-02-29T21:05:11.371Z,13.77
2024-02-29T21:07:42.190Z,13.55
2024-02-29T21:12:47.294Z,12.10
2024-02-29T21:15:38.962Z,13.93
2024-02-29T21:18:08.364Z,12.18
2024-02-29T21:27:47.940Z,13.77
2024-02-29T21:30:21.982Z,14.38
2024-02-29T21:32:50.696Z,13.93
2024-02-29T21:35:35.598Z,13.82
2024-02-29T21:38:10.264Z,14.73
2024-02-29T21:41:02.454Z,13.10
2024-02-29T21:43:58.739Z,13.60
2024-02-29T21:46:40.935Z,13.60
2024-02-29T21:49:10.308Z,14.20
2024-02-29T21:51:39.162Z,13.70
2024-02-29T21:54:08.420Z,15.43
2024-02-29T21:56:47.052Z,13.90
2024-02-29T21:59:24.805Z,14.38
2024-02-29T22:01:58.130Z,13.35
2024-02-29T22:04:31.787Z,14.13
2024-02-29T22:07:03.198Z,13.40
2024-02-29T22:09:36.385Z,15.20
2024-02-29T22:12:12.243Z,13.60
2024-02-29T22:14:43.393Z,13.60
2024-02-29T22:17:16.362Z,13.63
2024-02-29T22:19:44.664Z,12.90
2024-02-29T22:22:13.654Z,12.48
2024-02-29T22:24:42.374Z,14.32
2024-02-29T22:27:11.823Z,13.60
2024-02-29T22:29:39.892Z,13.07
2024-02-29T22:32:10.645Z,13.07
2024-02-29T22:34:41.671Z,13.82
2024-02-29T22:37:09.982Z,13.55
2024-02-29T22:39:38.094Z,13.80
2024-02-29T22:42:16.408Z,14.00
2024-02-29T22:44:44.606Z,13.35
2024-02-29T22:47:12.733Z,13.95
2024-02-29T22:49:41.381Z,15.57
2024-02-29T22:52:09.488Z,14.63
2024-02-29T22:54:37.824Z,14.52
2024-02-29T22:57:06.347Z,13.48
2024-02-29T22:59:35.427Z,13.63
2024-02-29T23:02:07.055Z,14.27
2024-02-29T23:04:36.788Z,13.80
2024-02-29T23:07:05.301Z,15.30
2024-02-29T23:09:35.172Z,14.73
2024-02-29T23:12:03.663Z,15.65
2024-02-29T23:14:32.031Z,14.82
2024-02-29T23:17:00.273Z,14.88
2024-02-29T23:19:30.955Z,15.80
2024-02-29T23:22:01.822Z,14.70
2024-02-29T23:24:30.303Z,15.25
2024-02-29T23:26:59.006Z,15.63
2024-02-29T23:29:27.258Z,15.27
2024-02-29T23:31:58.098Z,15.40
2024-02-29T23:34:28.063Z,16.17
2024-02-29T23:36:56.216Z,15.25
2024-02-29T23:39:25.182Z,15.00
2024-02-29T23:41:53.564Z,15.15
2024-02-29T23:44:21.912Z,15.25
2024-02-29T23:46:50.207Z,14.15
2024-02-29T23:49:18.405Z,13.43
2024-02-29T23:51:46.762Z,14.27
2024-02-29T23:54:17.238Z,14.35
2024-02-29T23:56:50.059Z,12.73
2024-02-29T23:59:24.008Z,13.98
